createdAt,value
2017-05-11T00:01:07.088Z,0
2017-05-11T00:02:17.361Z,0
2017-05-11T00:03:27.320Z,0
2017-05-11T00:04:37.581Z,0
2017-05-11T00:05:47.542Z,0
2017-05-11T00:06:57.223Z,0
2017-05-11T00:08:07.489Z,0
2017-05-11T00:09:17.439Z,0
2017-05-11T00:10:27.394Z,0
2017-05-11T00:11:37.353Z,0
2017-05-11T00:12:47.618Z,0
2017-05-11T00:13:57.885Z,0
2017-05-11T00:15:07.836Z,0
2017-05-11T00:16:18.098Z,0
2017-05-11T00:17:28.365Z,0
2017-05-11T00:18:37.995Z,0
2017-05-11T00:19:47.948Z,0
2017-05-11T00:20:57.905Z,0
2017-05-11T00:22:08.171Z,0
2017-05-11T00:23:18.442Z,0
2017-05-11T00:24:28.715Z,0
2017-05-11T00:25:38.683Z,0
2017-05-11T00:26:48.951Z,0
2017-05-11T00:27:58.902Z,0
2017-05-11T00:29:08.846Z,0
2017-05-11T00:30:19.119Z,0
2017-05-11T00:31:29.116Z,0
2017-05-11T00:32:39.061Z,0
2017-05-11T00:33:49.011Z,0
2017-05-11T00:34:58.649Z,0
2017-05-11T00:36:08.925Z,0
2017-05-11T00:37:19.200Z,0
2017-05-11T00:38:28.842Z,0
2017-05-11T00:39:38.800Z,0
2017-05-11T00:40:48.753Z,0
2017-05-11T00:41:59.012Z,0
2017-05-11T00:43:09.282Z,0
2017-05-11T00:44:19.267Z,0
2017-05-11T00:45:29.222Z,0
2017-05-11T00:46:39.488Z,0
2017-05-11T00:47:49.753Z,0
2017-05-11T00:49:00.024Z,0
2017-05-11T00:50:09.974Z,0
2017-05-11T00:51:20.241Z,0
2017-05-11T00:52:30.511Z,0
2017-05-11T00:53:40.471Z,0
2017-05-11T00:54:50.737Z,0
2017-05-11T00:56:00.685Z,0
2017-05-11T00:57:10.946Z,0
2017-05-11T00:58:21.212Z,0
2017-05-11T00:59:31.511Z,0
2017-05-11T01:00:41.777Z,0
2017-05-11T01:01:52.041Z,0
2017-05-11T01:03:02.307Z,0
2017-05-11T01:04:12.573Z,0
2017-05-11T01:05:22.521Z,0
2017-05-11T01:06:32.778Z,0
2017-05-11T01:07:43.045Z,0
2017-05-11T01:08:52.680Z,0
2017-05-11T01:10:02.004Z,0
2017-05-11T01:11:12.271Z,0
2017-05-11T01:12:22.548Z,0
2017-05-11T01:13:32.809Z,0
2017-05-11T01:14:43.074Z,0
2017-05-11T01:15:53.334Z,0
2017-05-11T01:17:03.281Z,0
2017-05-11T01:18:13.229Z,0
2017-05-11T01:19:23.494Z,0
2017-05-11T01:20:33.445Z,0
2017-05-11T01:21:43.399Z,0
2017-05-11T01:22:53.659Z,0
2017-05-11T01:24:03.295Z,0
2017-05-11T01:25:12.936Z,0
2017-05-11T01:26:23.203Z,0
2017-05-11T01:27:33.465Z,0
2017-05-11T01:28:43.418Z,0
2017-05-11T01:29:53.694Z,0
2017-05-11T01:31:03.643Z,0
2017-05-11T01:32:13.612Z,0
2017-05-11T01:33:23.872Z,0
2017-05-11T01:34:33.503Z,0
2017-05-11T01:35:43.764Z,0
2017-05-11T01:36:54.028Z,0
2017-05-11T01:38:04.287Z,0
2017-05-11T01:39:14.598Z,0
2017-05-11T01:40:24.234Z,0
2017-05-11T01:41:34.496Z,0
2017-05-11T01:42:44.763Z,0
2017-05-11T01:43:54.722Z,0
2017-05-11T01:45:03.727Z,0
2017-05-11T01:46:13.679Z,0
2017-05-11T01:47:23.943Z,0
2017-05-11T01:48:34.210Z,0
2017-05-11T01:49:44.491Z,0
2017-05-11T01:50:54.764Z,0
2017-05-11T01:52:04.718Z,0
2017-05-11T01:53:14.671Z,0
2017-05-11T01:54:24.964Z,0
2017-05-11T01:55:35.237Z,0
2017-05-11T01:56:45.503Z,0
2017-05-11T01:57:55.453Z,0
2017-05-11T01:59:05.715Z,0
2017-05-11T02:00:15.659Z,0
2017-05-11T02:01:25.932Z,0
2017-05-11T02:02:36.198Z,0
2017-05-11T02:03:46.485Z,0
2017-05-11T02:04:56.746Z,0
2017-05-11T02:06:07.005Z,0
2017-05-11T02:07:17.273Z,0
2017-05-11T02:08:27.533Z,0
2017-05-11T02:09:37.493Z,0
2017-05-11T02:10:47.761Z,0
2017-05-11T02:11:58.023Z,0
2017-05-11T02:13:08.282Z,0
2017-05-11T02:14:18.232Z,0
2017-05-11T02:15:28.187Z,0
2017-05-11T02:16:37.826Z,0
2017-05-11T02:17:48.103Z,0
2017-05-11T02:18:58.371Z,0
2017-05-11T02:20:08.637Z,0
2017-05-11T02:21:18.898Z,0
2017-05-11T02:22:28.854Z,0
2017-05-11T02:23:38.499Z,0
2017-05-11T02:24:48.772Z,0
2017-05-11T02:25:59.030Z,0
2017-05-11T02:27:09.304Z,0
2017-05-11T02:28:19.583Z,0
2017-05-11T02:29:29.853Z,0
2017-05-11T02:30:40.116Z,0
2017-05-11T02:31:50.386Z,0
2017-05-11T02:33:00.336Z,0
2017-05-11T02:34:10.607Z,0
2017-05-11T02:35:20.868Z,0
2017-05-11T02:36:30.830Z,0
2017-05-11T02:37:41.193Z,0
2017-05-11T02:38:51.459Z,0
2017-05-11T02:40:01.412Z,0
2017-05-11T02:41:11.676Z,0
2017-05-11T02:42:21.936Z,0
2017-05-11T02:43:32.204Z,0
2017-05-11T02:44:42.473Z,0
2017-05-11T02:45:52.421Z,0
2017-05-11T02:47:02.377Z,0
2017-05-11T02:48:12.336Z,0
2017-05-11T02:49:22.604Z,0
2017-05-11T02:50:32.866Z,0
2017-05-11T02:51:43.135Z,0
2017-05-11T02:52:53.400Z,0
2017-05-11T02:54:03.354Z,0
2017-05-11T02:55:13.310Z,0
2017-05-11T02:56:22.945Z,0
2017-05-11T02:57:33.208Z,0
2017-05-11T02:58:43.166Z,0
2017-05-11T02:59:53.431Z,0
2017-05-11T03:01:02.748Z,0
2017-05-11T03:02:12.730Z,0
2017-05-11T03:03:22.993Z,0
2017-05-11T03:04:32.942Z,0
2017-05-11T03:05:43.207Z,0
2017-05-11T03:06:53.157Z,0
2017-05-11T03:08:03.429Z,0
2017-05-11T03:09:13.696Z,0
2017-05-11T03:10:23.966Z,0
2017-05-11T03:11:34.229Z,0
2017-05-11T03:12:44.182Z,0
2017-05-11T03:13:53.824Z,0
2017-05-11T03:15:03.799Z,0
2017-05-11T03:16:13.756Z,0
2017-05-11T03:17:23.075Z,0
2017-05-11T03:18:33.340Z,0
2017-05-11T03:19:43.302Z,0
2017-05-11T03:20:53.610Z,0
2017-05-11T03:22:03.561Z,0
2017-05-11T03:23:13.512Z,0
2017-05-11T03:24:23.467Z,0
2017-05-11T03:25:33.752Z,0
2017-05-11T03:26:43.706Z,0
2017-05-11T03:27:53.351Z,0
2017-05-11T03:29:03.314Z,0
2017-05-11T03:30:13.264Z,0
2017-05-11T03:31:23.538Z,0
2017-05-11T03:32:33.487Z,4
2017-05-11T03:33:43.445Z,4
2017-05-11T03:34:53.707Z,0
2017-05-11T03:36:03.978Z,0
2017-05-11T03:37:13.941Z,0
2017-05-11T03:38:24.211Z,0
2017-05-11T03:39:34.206Z,0
2017-05-11T03:40:44.151Z,0
2017-05-11T03:41:54.104Z,0
2017-05-11T03:43:04.364Z,4
2017-05-11T03:44:14.629Z,4
2017-05-11T03:45:24.576Z,0
2017-05-11T03:46:34.210Z,0
2017-05-11T03:47:44.163Z,0
2017-05-11T03:48:54.130Z,0
2017-05-11T03:50:04.088Z,0
2017-05-11T03:51:14.368Z,0
2017-05-11T03:52:24.322Z,0
2017-05-11T03:53:34.274Z,0
2017-05-11T03:54:44.545Z,4
2017-05-11T03:55:54.501Z,4
2017-05-11T03:57:04.776Z,4
2017-05-11T03:58:15.038Z,4
2017-05-11T03:59:25.305Z,4
2017-05-11T04:00:35.573Z,4
2017-05-11T04:01:45.879Z,4
2017-05-11T04:02:55.514Z,4
2017-05-11T04:04:05.781Z,0
2017-05-11T04:05:15.100Z,0
2017-05-11T04:06:25.366Z,0
2017-05-11T04:07:35.633Z,0
2017-05-11T04:08:45.900Z,4
2017-05-11T04:09:56.175Z,4
2017-05-11T04:11:06.435Z,4
2017-05-11T04:12:16.699Z,4
2017-05-11T04:13:26.973Z,4
2017-05-11T04:14:36.924Z,4
2017-05-11T04:15:46.762Z,4
2017-05-11T04:16:56.629Z,4
2017-05-11T04:18:06.586Z,4
2017-05-11T04:19:16.851Z,4
2017-05-11T04:20:27.118Z,4
2017-05-11T04:21:37.387Z,4
2017-05-11T04:22:47.654Z,4
2017-05-11T04:23:57.935Z,4
2017-05-11T04:25:07.568Z,4
2017-05-11T04:26:17.832Z,4
2017-05-11T04:27:27.781Z,4
2017-05-11T04:28:38.043Z,4
2017-05-11T04:29:48.308Z,4
2017-05-11T04:30:58.575Z,0
2017-05-11T04:32:08.530Z,0
2017-05-11T04:33:18.486Z,0
2017-05-11T04:34:28.753Z,0
2017-05-11T04:35:39.024Z,0
2017-05-11T04:36:48.660Z,0
2017-05-11T04:37:58.936Z,0
2017-05-11T04:39:09.210Z,4
2017-05-11T04:40:19.159Z,4
2017-05-11T04:41:29.423Z,4
2017-05-11T04:42:39.381Z,4
2017-05-11T04:43:49.021Z,4
2017-05-11T04:44:58.979Z,4
2017-05-11T04:46:09.246Z,4
2017-05-11T04:47:19.196Z,4
2017-05-11T04:48:29.455Z,4
2017-05-11T04:49:39.399Z,8
2017-05-11T04:50:49.667Z,8
2017-05-11T04:51:59.941Z,4
2017-05-11T04:53:09.897Z,4
2017-05-11T04:54:20.167Z,4
2017-05-11T04:55:29.801Z,4
2017-05-11T04:56:40.065Z,8
2017-05-11T04:57:49.389Z,8
2017-05-11T04:58:59.709Z,4
2017-05-11T05:00:09.662Z,4
2017-05-11T05:01:19.609Z,4
2017-05-11T05:02:29.551Z,8
2017-05-11T05:03:39.497Z,8
2017-05-11T05:04:49.766Z,8
2017-05-11T05:05:59.721Z,8
2017-05-11T05:07:09.677Z,8
2017-05-11T05:08:19.318Z,8
2017-05-11T05:09:29.600Z,8
2017-05-11T05:10:39.866Z,8
2017-05-11T05:11:50.129Z,4
2017-05-11T05:13:00.437Z,8
2017-05-11T05:14:10.381Z,8
2017-05-11T05:15:20.015Z,8
2017-05-11T05:16:30.277Z,8
2017-05-11T05:17:40.545Z,8
2017-05-11T05:18:50.803Z,8
2017-05-11T05:20:00.760Z,8
2017-05-11T05:21:10.396Z,8
2017-05-11T05:22:20.033Z,8
2017-05-11T05:23:30.301Z,8
2017-05-11T05:24:40.571Z,8
2017-05-11T05:25:50.221Z,8
2017-05-11T05:26:59.859Z,8
2017-05-11T05:28:09.492Z,8
2017-05-11T05:29:19.440Z,8
2017-05-11T05:30:29.702Z,8
2017-05-11T05:31:39.655Z,8
2017-05-11T05:32:49.918Z,8
2017-05-11T05:33:59.557Z,8
2017-05-11T05:35:09.511Z,8
2017-05-11T05:36:19.784Z,8
2017-05-11T05:37:29.733Z,8
2017-05-11T05:38:39.679Z,8
2017-05-11T05:39:49.951Z,8
2017-05-11T05:41:00.220Z,8
2017-05-11T05:42:09.853Z,8
2017-05-11T05:43:19.173Z,8
2017-05-11T05:44:29.125Z,8
2017-05-11T05:45:39.381Z,12
2017-05-11T05:46:49.647Z,8
2017-05-11T05:47:59.288Z,8
2017-05-11T05:49:08.924Z,8
2017-05-11T05:50:18.866Z,8
2017-05-11T05:51:29.136Z,8
2017-05-11T05:52:39.086Z,8
2017-05-11T05:53:49.352Z,12
2017-05-11T05:54:59.622Z,8
2017-05-11T05:56:09.253Z,8
2017-05-11T05:57:19.520Z,12
2017-05-11T05:58:29.469Z,8
2017-05-11T05:59:39.421Z,8
2017-05-11T06:00:49.403Z,12
2017-05-11T06:01:59.669Z,12
2017-05-11T06:03:09.298Z,12
2017-05-11T06:04:19.252Z,8
2017-05-11T06:05:29.515Z,8
2017-05-11T06:06:39.468Z,12
2017-05-11T06:07:49.424Z,12
2017-05-11T06:08:59.691Z,12
2017-05-11T06:10:09.955Z,12
2017-05-11T06:11:20.214Z,12
2017-05-11T06:12:30.167Z,12
2017-05-11T06:13:40.439Z,12
2017-05-11T06:14:50.385Z,12
2017-05-11T06:16:00.655Z,12
2017-05-11T06:17:10.606Z,12
2017-05-11T06:18:20.574Z,12
2017-05-11T06:19:30.531Z,12
2017-05-11T06:20:40.797Z,12
2017-05-11T06:21:50.750Z,12
2017-05-11T06:23:00.700Z,12
2017-05-11T06:24:10.332Z,16
2017-05-11T06:25:20.288Z,20
2017-05-11T06:26:30.240Z,24
2017-05-11T06:27:40.515Z,36
2017-05-11T06:28:50.467Z,48
2017-05-11T06:30:00.739Z,60
2017-05-11T06:31:11.005Z,72
2017-05-11T06:32:20.956Z,88
2017-05-11T06:33:30.915Z,96
2017-05-11T06:34:41.184Z,100
2017-05-11T06:35:51.450Z,108
2017-05-11T06:37:01.091Z,108
2017-05-11T06:38:11.044Z,116
2017-05-11T06:39:20.996Z,116
2017-05-11T06:40:31.258Z,116
2017-05-11T06:41:41.527Z,116
2017-05-11T06:42:51.212Z,116
2017-05-11T06:44:00.849Z,120
2017-05-11T06:45:11.113Z,116
2017-05-11T06:46:20.747Z,104
2017-05-11T06:47:31.013Z,116
2017-05-11T06:48:41.287Z,116
2017-05-11T06:49:51.551Z,116
2017-05-11T06:51:01.817Z,116
2017-05-11T06:52:12.095Z,120
2017-05-11T06:53:22.050Z,120
2017-05-11T06:54:32.311Z,120
2017-05-11T06:55:42.586Z,120
2017-05-11T06:56:52.227Z,116
2017-05-11T06:58:02.182Z,120
2017-05-11T06:59:12.142Z,120
2017-05-11T07:00:22.407Z,112
2017-05-11T07:01:32.043Z,108
2017-05-11T07:02:42.001Z,104
2017-05-11T07:03:52.271Z,104
2017-05-11T07:05:02.533Z,108
2017-05-11T07:06:12.808Z,104
2017-05-11T07:07:23.081Z,104
2017-05-11T07:08:33.029Z,100
2017-05-11T07:09:43.297Z,104
2017-05-11T07:10:53.566Z,100
2017-05-11T07:12:03.832Z,100
2017-05-11T07:13:13.789Z,104
2017-05-11T07:14:23.739Z,100
2017-05-11T07:15:34.046Z,100
2017-05-11T07:16:44.311Z,100
2017-05-11T07:17:54.296Z,100
2017-05-11T07:19:04.255Z,100
2017-05-11T07:20:14.205Z,100
2017-05-11T07:21:24.166Z,92
2017-05-11T07:22:34.433Z,88
2017-05-11T07:23:44.385Z,80
2017-05-11T07:24:54.066Z,84
2017-05-11T07:26:04.330Z,88
2017-05-11T07:27:14.287Z,88
2017-05-11T07:28:23.929Z,84
2017-05-11T07:29:34.192Z,76
2017-05-11T07:30:44.472Z,76
2017-05-11T07:31:54.742Z,84
2017-05-11T07:33:05.012Z,84
2017-05-11T07:34:14.962Z,76
2017-05-11T07:35:25.227Z,76
2017-05-11T07:36:34.864Z,72
2017-05-11T07:37:44.817Z,76
2017-05-11T07:38:54.772Z,72
2017-05-11T07:40:05.037Z,72
2017-05-11T07:41:14.991Z,72
2017-05-11T07:42:24.941Z,68
2017-05-11T07:43:35.208Z,68
2017-05-11T07:44:45.161Z,64
2017-05-11T07:45:55.427Z,64
2017-05-11T07:47:05.058Z,64
2017-05-11T07:48:15.318Z,64
2017-05-11T07:49:25.276Z,64
2017-05-11T07:50:35.236Z,64
2017-05-11T07:51:45.505Z,64
2017-05-11T07:52:55.771Z,68
2017-05-11T07:54:06.034Z,64
2017-05-11T07:55:16.312Z,64
2017-05-11T07:56:26.257Z,60
2017-05-11T07:57:36.575Z,64
2017-05-11T07:58:46.843Z,64
2017-05-11T07:59:56.817Z,60
2017-05-11T08:01:06.766Z,64
2017-05-11T08:02:16.407Z,56
2017-05-11T08:03:26.363Z,60
2017-05-11T08:04:36.628Z,56
2017-05-11T08:05:46.582Z,60
2017-05-11T08:06:56.536Z,60
2017-05-11T08:08:06.801Z,60
2017-05-11T08:09:17.074Z,60
2017-05-11T08:10:27.342Z,60
2017-05-11T08:11:37.610Z,60
2017-05-11T08:12:47.562Z,60
2017-05-11T08:13:57.831Z,56
2017-05-11T08:15:07.502Z,44
2017-05-11T08:16:17.776Z,56
2017-05-11T08:17:27.724Z,56
2017-05-11T08:18:37.989Z,52
2017-05-11T08:19:47.998Z,52
2017-05-11T08:20:57.954Z,52
2017-05-11T08:22:07.907Z,52
2017-05-11T08:23:17.561Z,52
2017-05-11T08:24:27.834Z,52
2017-05-11T08:25:38.144Z,52
2017-05-11T08:26:48.410Z,56
2017-05-11T08:27:58.366Z,48
2017-05-11T08:29:08.312Z,48
2017-05-11T08:30:18.272Z,52
2017-05-11T08:31:27.938Z,48
2017-05-11T08:32:38.207Z,52
2017-05-11T08:33:48.467Z,52
2017-05-11T08:34:58.421Z,44
2017-05-11T08:36:08.375Z,48
2017-05-11T08:37:18.011Z,44
2017-05-11T08:38:28.283Z,44
2017-05-11T08:39:38.552Z,40
2017-05-11T08:40:48.859Z,40
2017-05-11T08:41:59.131Z,40
2017-05-11T08:43:09.082Z,40
2017-05-11T08:44:19.358Z,40
2017-05-11T08:45:29.628Z,44
2017-05-11T08:46:39.898Z,40
2017-05-11T08:47:49.856Z,40
2017-05-11T08:48:59.495Z,40
2017-05-11T08:50:09.778Z,36
2017-05-11T08:51:20.051Z,36
2017-05-11T08:52:30.006Z,32
2017-05-11T08:53:40.276Z,32
2017-05-11T08:54:50.226Z,32
2017-05-11T08:55:59.854Z,32
2017-05-11T08:57:09.509Z,28
2017-05-11T08:58:19.780Z,24
2017-05-11T08:59:29.776Z,24
2017-05-11T09:00:40.046Z,24
2017-05-11T09:01:49.362Z,28
2017-05-11T09:02:59.322Z,28
2017-05-11T09:04:09.278Z,28
2017-05-11T09:05:19.545Z,28
2017-05-11T09:06:29.182Z,28
2017-05-11T09:07:39.144Z,24
2017-05-11T09:08:48.830Z,24
2017-05-11T09:09:59.100Z,28
2017-05-11T09:11:09.365Z,24
2017-05-11T09:12:19.321Z,24
2017-05-11T09:13:29.590Z,24
2017-05-11T09:14:39.857Z,28
2017-05-11T09:15:49.806Z,24
2017-05-11T09:16:59.458Z,24
2017-05-11T09:18:09.724Z,24
2017-05-11T09:19:19.692Z,24
2017-05-11T09:20:29.651Z,24
2017-05-11T09:21:39.605Z,24
2017-05-11T09:22:49.559Z,24
2017-05-11T09:23:59.516Z,24
2017-05-11T09:25:09.482Z,24
2017-05-11T09:26:19.754Z,20
2017-05-11T09:27:29.707Z,20
2017-05-11T09:28:39.976Z,24
2017-05-11T09:29:50.241Z,20
2017-05-11T09:30:59.872Z,20
2017-05-11T09:32:09.828Z,20
2017-05-11T09:33:20.097Z,24
2017-05-11T09:34:30.047Z,24
2017-05-11T09:35:40.325Z,20
2017-05-11T09:36:50.599Z,20
2017-05-11T09:38:00.899Z,20
2017-05-11T09:39:11.169Z,20
2017-05-11T09:40:21.445Z,20
2017-05-11T09:41:31.711Z,20
2017-05-11T09:42:41.673Z,20
2017-05-11T09:43:51.000Z,20
2017-05-11T09:45:00.952Z,20
2017-05-11T09:46:11.231Z,20
2017-05-11T09:47:21.185Z,20
2017-05-11T09:48:30.509Z,20
2017-05-11T09:49:40.773Z,20
2017-05-11T09:50:51.035Z,16
2017-05-11T09:52:01.304Z,20
2017-05-11T09:53:11.578Z,20
2017-05-11T09:54:21.843Z,20
2017-05-11T09:55:31.814Z,20
2017-05-11T09:56:42.084Z,20
2017-05-11T09:57:51.412Z,20
2017-05-11T09:59:01.678Z,20
2017-05-11T10:00:11.957Z,20
2017-05-11T10:01:22.221Z,16
2017-05-11T10:02:32.170Z,16
2017-05-11T10:03:41.811Z,20
2017-05-11T10:04:52.074Z,20
2017-05-11T10:06:02.337Z,16
2017-05-11T10:07:12.298Z,16
2017-05-11T10:08:21.941Z,16
2017-05-11T10:09:31.576Z,16
2017-05-11T10:10:41.527Z,16
2017-05-11T10:11:51.792Z,20
2017-05-11T10:13:02.067Z,16
2017-05-11T10:14:12.027Z,16
2017-05-11T10:15:21.669Z,16
2017-05-11T10:16:31.631Z,16
2017-05-11T10:17:41.919Z,16
2017-05-11T10:18:52.188Z,16
2017-05-11T10:20:02.463Z,16
2017-05-11T10:21:12.421Z,16
2017-05-11T10:22:22.694Z,16
2017-05-11T10:23:32.954Z,16
2017-05-11T10:24:43.220Z,16
2017-05-11T10:25:53.488Z,16
2017-05-11T10:27:03.756Z,12
2017-05-11T10:28:13.711Z,16
2017-05-11T10:29:23.664Z,16
2017-05-11T10:30:33.929Z,16
2017-05-11T10:31:43.571Z,16
2017-05-11T10:32:53.833Z,16
2017-05-11T10:34:04.108Z,16
2017-05-11T10:35:14.375Z,16
2017-05-11T10:36:24.649Z,16
2017-05-11T10:37:34.919Z,16
2017-05-11T10:38:44.873Z,16
2017-05-11T10:39:55.139Z,16
2017-05-11T10:41:05.414Z,16
2017-05-11T10:42:15.040Z,12
2017-05-11T10:43:24.675Z,12
2017-05-11T10:44:34.623Z,12
2017-05-11T10:45:44.888Z,12
2017-05-11T10:46:55.157Z,12
2017-05-11T10:48:04.795Z,12
2017-05-11T10:49:15.060Z,12
2017-05-11T10:50:25.012Z,12
2017-05-11T10:51:35.279Z,12
2017-05-11T10:52:45.544Z,12
2017-05-11T10:53:55.813Z,12
2017-05-11T10:55:05.452Z,12
2017-05-11T10:56:15.401Z,12
2017-05-11T10:57:25.036Z,12
2017-05-11T10:58:34.674Z,12
2017-05-11T10:59:44.627Z,16
2017-05-11T11:00:54.260Z,12
2017-05-11T11:02:04.528Z,12
2017-05-11T11:03:14.793Z,12
2017-05-11T11:04:24.747Z,12
2017-05-11T11:05:35.018Z,12
2017-05-11T11:06:44.968Z,12
2017-05-11T11:07:54.960Z,12
2017-05-11T11:09:05.227Z,12
2017-05-11T11:10:14.914Z,16
2017-05-11T11:11:24.558Z,12
2017-05-11T11:12:34.515Z,12
2017-05-11T11:13:44.780Z,12
2017-05-11T11:14:55.047Z,12
2017-05-11T11:16:05.311Z,12
2017-05-11T11:17:14.945Z,16
2017-05-11T11:18:25.201Z,16
2017-05-11T11:19:35.471Z,20
2017-05-11T11:20:45.423Z,20
2017-05-11T11:21:55.695Z,16
2017-05-11T11:23:05.645Z,16
2017-05-11T11:24:15.915Z,16
2017-05-11T11:25:25.860Z,12
2017-05-11T11:26:35.814Z,12
2017-05-11T11:27:45.765Z,12
2017-05-11T11:28:55.711Z,12
2017-05-11T11:30:05.383Z,8
2017-05-11T11:31:15.649Z,8
2017-05-11T11:32:25.603Z,8
2017-05-11T11:33:35.550Z,8
2017-05-11T11:34:45.819Z,12
2017-05-11T11:35:55.774Z,12
2017-05-11T11:37:05.728Z,12
2017-05-11T11:38:16.001Z,12
2017-05-11T11:39:25.960Z,12
2017-05-11T11:40:36.229Z,12
2017-05-11T11:41:46.497Z,12
2017-05-11T11:42:56.445Z,12
2017-05-11T11:44:06.400Z,12
2017-05-11T11:45:16.348Z,12
2017-05-11T11:46:26.616Z,12
2017-05-11T11:47:36.251Z,12
2017-05-11T11:48:46.555Z,12
2017-05-11T11:49:56.829Z,12
2017-05-11T11:51:07.093Z,12
2017-05-11T11:52:16.418Z,12
2017-05-11T11:53:26.685Z,12
2017-05-11T11:54:36.318Z,12
2017-05-11T11:55:46.279Z,12
2017-05-11T11:56:56.544Z,12
2017-05-11T11:58:06.812Z,8
2017-05-11T11:59:16.778Z,12
2017-05-11T12:00:26.734Z,12
2017-05-11T12:01:36.994Z,12
2017-05-11T12:02:47.300Z,12
2017-05-11T12:03:57.577Z,12
2017-05-11T12:05:07.222Z,12
2017-05-11T12:06:17.496Z,12
2017-05-11T12:07:27.462Z,12
2017-05-11T12:08:37.736Z,12
2017-05-11T12:09:47.685Z,12
2017-05-11T12:10:57.638Z,12
2017-05-11T12:12:07.274Z,8
2017-05-11T12:13:17.222Z,12
2017-05-11T12:14:27.483Z,12
2017-05-11T12:15:37.431Z,12
2017-05-11T12:16:47.378Z,12
2017-05-11T12:17:57.330Z,12
2017-05-11T12:19:07.601Z,12
2017-05-11T12:20:17.556Z,16
2017-05-11T12:21:27.509Z,12
2017-05-11T12:22:37.770Z,12
2017-05-11T12:23:48.065Z,12
2017-05-11T12:24:57.699Z,12
2017-05-11T12:26:07.334Z,12
2017-05-11T12:27:17.599Z,12
2017-05-11T12:28:27.548Z,12
2017-05-11T12:29:37.812Z,12
2017-05-11T12:30:47.134Z,12
2017-05-11T12:31:57.398Z,12
2017-05-11T12:33:07.340Z,16
2017-05-11T12:34:17.294Z,16
2017-05-11T12:35:27.556Z,16
2017-05-11T12:36:37.511Z,16
2017-05-11T12:37:47.462Z,16
2017-05-11T12:38:57.730Z,16
2017-05-11T12:40:07.681Z,16
2017-05-11T12:41:17.325Z,12
2017-05-11T12:42:27.588Z,12
2017-05-11T12:43:37.853Z,16
2017-05-11T12:44:47.802Z,16
2017-05-11T12:45:57.757Z,16
2017-05-11T12:47:07.701Z,16
2017-05-11T12:48:17.655Z,16
2017-05-11T12:49:27.605Z,16
2017-05-11T12:50:37.564Z,16
2017-05-11T12:51:47.511Z,16
2017-05-11T12:52:57.775Z,16
2017-05-11T12:54:08.040Z,16
2017-05-11T12:55:17.358Z,16
2017-05-11T12:56:27.329Z,16
2017-05-11T12:57:37.597Z,16
2017-05-11T12:58:47.557Z,20
2017-05-11T12:59:57.507Z,16
2017-05-11T13:01:07.455Z,16
2017-05-11T13:02:17.413Z,16
2017-05-11T13:03:27.361Z,16
2017-05-11T13:04:37.629Z,16
2017-05-11T13:05:47.588Z,16
2017-05-11T13:06:57.538Z,16
2017-05-11T13:08:07.484Z,16
2017-05-11T13:09:17.750Z,16
2017-05-11T13:10:27.383Z,12
2017-05-11T13:11:37.639Z,16
2017-05-11T13:12:47.593Z,16
2017-05-11T13:13:57.538Z,20
2017-05-11T13:15:07.488Z,20
2017-05-11T13:16:17.439Z,16
2017-05-11T13:17:27.390Z,20
2017-05-11T13:18:37.657Z,16
2017-05-11T13:19:47.932Z,16
2017-05-11T13:20:57.614Z,20
2017-05-11T13:22:07.578Z,20
2017-05-11T13:23:16.901Z,20
2017-05-11T13:24:26.534Z,16
2017-05-11T13:25:36.801Z,20
2017-05-11T13:26:47.071Z,16
2017-05-11T13:27:57.335Z,16
2017-05-11T13:29:07.290Z,20
2017-05-11T13:30:17.547Z,20
2017-05-11T13:31:27.496Z,20
2017-05-11T13:32:37.764Z,20
2017-05-11T13:33:46.769Z,20
2017-05-11T13:34:57.035Z,20
2017-05-11T13:36:07.008Z,16
2017-05-11T13:37:17.275Z,16
2017-05-11T13:38:26.910Z,20
2017-05-11T13:39:37.177Z,20
2017-05-11T13:40:47.120Z,16
2017-05-11T13:41:57.414Z,20
2017-05-11T13:43:07.375Z,20
2017-05-11T13:44:17.323Z,20
2017-05-11T13:45:27.311Z,20
2017-05-11T13:46:37.570Z,20
2017-05-11T13:47:47.838Z,20
2017-05-11T13:48:57.800Z,20
2017-05-11T13:50:07.759Z,20
2017-05-11T13:51:17.399Z,20
2017-05-11T13:52:27.668Z,20
2017-05-11T13:53:37.315Z,20
2017-05-11T13:54:48.149Z,20
2017-05-11T13:55:58.418Z,20
2017-05-11T13:57:08.368Z,20
2017-05-11T13:58:18.634Z,20
2017-05-11T13:59:28.900Z,20
2017-05-11T14:00:39.170Z,20
2017-05-11T14:01:49.438Z,20
2017-05-11T14:02:59.718Z,20
2017-05-11T14:04:09.985Z,20
2017-05-11T14:05:19.945Z,20
2017-05-11T14:06:29.906Z,20
2017-05-11T14:07:39.860Z,20
2017-05-11T14:08:49.813Z,20
2017-05-11T14:09:59.780Z,20
2017-05-11T14:11:10.059Z,20
2017-05-11T14:12:19.736Z,20
2017-05-11T14:13:30.008Z,20
2017-05-11T14:14:40.272Z,20
2017-05-11T14:15:50.552Z,24
2017-05-11T14:17:00.186Z,20
2017-05-11T14:18:10.457Z,24
2017-05-11T14:19:20.718Z,20
2017-05-11T14:20:30.684Z,20
2017-05-11T14:21:40.324Z,20
2017-05-11T14:22:50.593Z,20
2017-05-11T14:24:00.860Z,20
2017-05-11T14:25:11.127Z,24
2017-05-11T14:26:21.423Z,20
2017-05-11T14:27:31.375Z,20
2017-05-11T14:28:41.660Z,20
2017-05-11T14:29:51.607Z,24
2017-05-11T14:31:01.869Z,24
2017-05-11T14:32:12.136Z,24
2017-05-11T14:33:21.775Z,24
2017-05-11T14:34:32.048Z,20
2017-05-11T14:35:42.315Z,20
2017-05-11T14:36:52.583Z,20
2017-05-11T14:38:02.853Z,20
2017-05-11T14:39:12.494Z,20
2017-05-11T14:40:22.452Z,20
2017-05-11T14:41:32.407Z,20
2017-05-11T14:42:42.046Z,20
2017-05-11T14:43:51.998Z,20
2017-05-11T14:45:02.267Z,20
2017-05-11T14:46:12.222Z,20
2017-05-11T14:47:22.192Z,20
2017-05-11T14:48:32.454Z,20
2017-05-11T14:49:42.412Z,20
2017-05-11T14:50:52.685Z,20
2017-05-11T14:52:02.326Z,20
2017-05-11T14:53:12.593Z,24
2017-05-11T14:54:22.234Z,24
2017-05-11T14:55:32.182Z,24
2017-05-11T14:56:42.448Z,24
2017-05-11T14:57:52.727Z,24
2017-05-11T14:59:02.991Z,24
2017-05-11T15:00:13.260Z,24
2017-05-11T15:01:23.525Z,24
2017-05-11T15:02:33.477Z,24
2017-05-11T15:03:43.742Z,24
2017-05-11T15:04:53.999Z,20
2017-05-11T15:06:03.955Z,20
2017-05-11T15:07:13.600Z,24
2017-05-11T15:08:23.275Z,20
2017-05-11T15:09:33.540Z,20
2017-05-11T15:10:43.803Z,20
2017-05-11T15:11:54.110Z,20
2017-05-11T15:13:04.061Z,24
2017-05-11T15:14:14.330Z,20
2017-05-11T15:15:24.276Z,20
2017-05-11T15:16:34.223Z,20
2017-05-11T15:17:44.488Z,20
2017-05-11T15:18:54.749Z,20
2017-05-11T15:20:04.394Z,20
2017-05-11T15:21:14.663Z,20
2017-05-11T15:22:24.609Z,20
2017-05-11T15:23:34.878Z,20
2017-05-11T15:24:45.145Z,20
2017-05-11T15:25:54.777Z,20
2017-05-11T15:27:05.041Z,16
2017-05-11T15:28:15.300Z,20
2017-05-11T15:29:25.565Z,16
2017-05-11T15:30:35.211Z,16
2017-05-11T15:31:45.159Z,20
2017-05-11T15:32:55.418Z,20
2017-05-11T15:34:05.054Z,20
2017-05-11T15:35:14.369Z,20
2017-05-11T15:36:24.634Z,16
2017-05-11T15:37:34.582Z,16
2017-05-11T15:38:44.849Z,16
2017-05-11T15:39:54.804Z,16
2017-05-11T15:41:05.062Z,16
2017-05-11T15:42:14.691Z,16
2017-05-11T15:43:24.955Z,16
2017-05-11T15:44:34.905Z,16
2017-05-11T15:45:45.806Z,16
2017-05-11T15:46:55.959Z,16
2017-05-11T15:48:06.226Z,16
2017-05-11T15:49:16.494Z,16
2017-05-11T15:50:26.451Z,16
2017-05-11T15:51:36.729Z,16
2017-05-11T15:52:47.005Z,12
2017-05-11T15:53:57.169Z,16
2017-05-11T15:55:07.484Z,16
2017-05-11T15:56:17.436Z,16
2017-05-11T15:57:28.107Z,16
2017-05-11T15:58:39.459Z,16
2017-05-11T15:59:49.403Z,12
2017-05-11T16:00:59.041Z,12
2017-05-11T16:02:09.317Z,12
2017-05-11T16:03:19.264Z,12
2017-05-11T16:04:29.215Z,16
2017-05-11T16:05:39.481Z,12
2017-05-11T16:06:51.170Z,12
2017-05-11T16:08:01.441Z,12
2017-05-11T16:09:11.718Z,12
2017-05-11T16:10:21.669Z,12
2017-05-11T16:11:31.933Z,12
2017-05-11T16:12:41.566Z,8
2017-05-11T16:13:51.841Z,12
2017-05-11T16:15:01.789Z,8
2017-05-11T16:16:12.069Z,8
2017-05-11T16:17:22.010Z,8
2017-05-11T16:18:33.186Z,8
2017-05-11T16:19:42.197Z,12
2017-05-11T16:20:52.464Z,8
2017-05-11T16:22:02.774Z,8
2017-05-11T16:23:12.723Z,8
2017-05-11T16:24:22.628Z,8
2017-05-11T16:25:32.897Z,8
2017-05-11T16:26:42.846Z,12
2017-05-11T16:27:52.795Z,8
2017-05-11T16:29:03.062Z,8
2017-05-11T16:30:13.005Z,8
2017-05-11T16:31:22.955Z,8
2017-05-11T16:32:33.241Z,12
2017-05-11T16:33:43.187Z,8
2017-05-11T16:34:53.453Z,12
2017-05-11T16:36:03.714Z,8
2017-05-11T16:37:13.981Z,12
2017-05-11T16:38:23.933Z,12
2017-05-11T16:39:34.233Z,8
2017-05-11T16:40:44.505Z,12
2017-05-11T16:41:54.466Z,8
2017-05-11T16:43:04.413Z,8
2017-05-11T16:44:14.065Z,8
2017-05-11T16:45:24.010Z,4
2017-05-11T16:46:34.478Z,8
2017-05-11T16:47:44.426Z,4
2017-05-11T16:48:54.686Z,4
2017-05-11T16:50:05.148Z,8
2017-05-11T16:51:15.412Z,4
2017-05-11T16:52:25.366Z,4